^^
Grace C. Lehan Memorial Weather Station Historical Data
Daily Summary for February 7, 2022 Units:  Both    English   Metric
Daily Weekly Monthly Yearly
  High: Low: Average:
Temperature: 78.6 °F /  25.9 °C 52 °F /  11.1 °C 67.3 °F /  19.6 °C
Dew Point: 66.6 °F /  19.2 °C 31 °F /  -0.6 °C 52.6 °F /  11.4 °C
Humidity: 91% 24% 63%
Wind Speed: 12mph /  19.3km/h - 2.7mph /  4.3km/h
Wind Gust: 30mph /  48.3km/h - -
Wind- - West
Pressure: 30.31 in /  1026.3 hPa 30.06 in /  1017.8 hPa -
Precipitation: 0.00 in /  0 mm    
 
 
Tabular Data for February 7, 2022
Time Temperature Dew Point Pressure Wind Wind Speed Wind Gust Humidity Rainfall Rate (Hourly) solar
00:04 66.8 °F /  19.3 °C 63.8 °F /  17.7 °C 30.10in /  1019.2hPa South 1.3mph /  2.1km/h 11mph /  17.7km/h 90% 0.00in /  0mm 0 W/m2
00:09 66.8 °F /  19.3 °C 63.8 °F /  17.7 °C 30.10in /  1019.2hPa South 0.3mph /  0.5km/h 7mph /  11.3km/h 90% 0.00in /  0mm 0 W/m2
00:14 66.8 °F /  19.3 °C 63.8 °F /  17.7 °C 30.10in /  1019.2hPa South 1.3mph /  2.1km/h 7mph /  11.3km/h 90% 0.00in /  0mm 0 W/m2
00:19 66.9 °F /  19.4 °C 63.8 °F /  17.7 °C 30.10in /  1019.2hPa South 1mph /  1.6km/h 7mph /  11.3km/h 90% 0.00in /  0mm 0 W/m2
00:24 66.9 °F /  19.4 °C 63.9 °F /  17.7 °C 30.10in /  1019.2hPa South 0.3mph /  0.5km/h 7mph /  11.3km/h 90% 0.00in /  0mm 0 W/m2
00:29 66.9 °F /  19.4 °C 63.9 °F /  17.7 °C 30.10in /  1019.2hPa South 0.3mph /  0.5km/h 7mph /  11.3km/h 90% 0.00in /  0mm 0 W/m2
00:34 66.9 °F /  19.4 °C 63.9 °F /  17.7 °C 30.10in /  1019.2hPa South 0.1mph /  0.2km/h 7mph /  11.3km/h 90% 0.00in /  0mm 0 W/m2
00:39 66.9 °F /  19.4 °C 63.9 °F /  17.7 °C 30.10in /  1019.2hPa South 0.4mph /  0.6km/h 5mph /  8km/h 90% 0.00in /  0mm 0 W/m2
00:44 66.9 °F /  19.4 °C 63.9 °F /  17.7 °C 30.10in /  1019.2hPa South 0.4mph /  0.6km/h 5mph /  8km/h 90% 0.00in /  0mm 0 W/m2
00:49 66.9 °F /  19.4 °C 63.9 °F /  17.7 °C 30.09in /  1018.8hPa South 0.8mph /  1.3km/h 5mph /  8km/h 90% 0.00in /  0mm 0 W/m2
00:54 66.9 °F /  19.4 °C 63.9 °F /  17.7 °C 30.10in /  1019.2hPa South 0.5mph /  0.8km/h 5mph /  8km/h 90% 0.00in /  0mm 0 W/m2
00:59 66.9 °F /  19.4 °C 63.9 °F /  17.7 °C 30.09in /  1018.8hPa South 0.3mph /  0.5km/h 5mph /  8km/h 90% 0.00in /  0mm 0 W/m2
01:04 66.9 °F /  19.4 °C 63.9 °F /  17.7 °C 30.09in /  1018.8hPa South 0.1mph /  0.2km/h 5mph /  8km/h 90% 0.00in /  0mm 0 W/m2
01:09 66.9 °F /  19.4 °C 63.8 °F /  17.7 °C 30.09in /  1018.8hPa South 0.4mph /  0.6km/h 3mph /  4.8km/h 89.8% 0.00in /  0mm 0 W/m2
01:14 67 °F /  19.4 °C 63.6 °F /  17.6 °C 30.09in /  1018.8hPa South 0.4mph /  0.6km/h 3mph /  4.8km/h 89% 0.00in /  0mm 0 W/m2
01:19 67 °F /  19.4 °C 63.7 °F /  17.6 °C 30.09in /  1018.8hPa South 0.9mph /  1.4km/h 5mph /  8km/h 89% 0.00in /  0mm 0 W/m2
01:24 67.1 °F /  19.5 °C 63.7 °F /  17.6 °C 30.09in /  1018.8hPa South 0.9mph /  1.4km/h 8mph /  12.9km/h 89% 0.00in /  0mm 0 W/m2
01:29 67.1 °F /  19.5 °C 63.8 °F /  17.7 °C 30.09in /  1018.8hPa South 1.7mph /  2.7km/h 8mph /  12.9km/h 89% 0.00in /  0mm 0 W/m2
01:34 67.2 °F /  19.6 °C 63.9 °F /  17.7 °C 30.09in /  1018.8hPa South 2.2mph /  3.5km/h 8mph /  12.9km/h 89% 0.00in /  0mm 0 W/m2
01:39 67.3 °F /  19.6 °C 63.9 °F /  17.7 °C 30.09in /  1018.8hPa South 2.5mph /  4km/h 7mph /  11.3km/h 88.7% 0.00in /  0mm 0 W/m2
01:44 67.4 °F /  19.7 °C 64 °F /  17.8 °C 30.09in /  1018.8hPa South 1.7mph /  2.7km/h 7mph /  11.3km/h 89% 0.00in /  0mm 0 W/m2
01:49 67.4 °F /  19.7 °C 64.1 °F /  17.8 °C 30.09in /  1018.8hPa South 2.1mph /  3.4km/h 8mph /  12.9km/h 89% 0.00in /  0mm 0 W/m2
01:54 67.4 °F /  19.7 °C 63.8 °F /  17.7 °C 30.09in /  1018.8hPa South 2.6mph /  4.2km/h 10mph /  16.1km/h 88.1% 0.00in /  0mm 0 W/m2
01:59 67.4 °F /  19.7 °C 63.7 °F /  17.6 °C 30.08in /  1018.5hPa South 2.8mph /  4.5km/h 10mph /  16.1km/h 88% 0.00in /  0mm 0 W/m2
02:04 67.4 °F /  19.7 °C 63.7 °F /  17.6 °C 30.09in /  1018.8hPa South 2.8mph /  4.5km/h 10mph /  16.1km/h 88% 0.00in /  0mm 0 W/m2
02:09 67.5 °F /  19.7 °C 63.8 °F /  17.7 °C 30.09in /  1018.8hPa South 2.8mph /  4.5km/h 10mph /  16.1km/h 88% 0.00in /  0mm 0 W/m2
02:14 67.5 °F /  19.7 °C 63.8 °F /  17.7 °C 30.09in /  1018.8hPa South 2.1mph /  3.4km/h 10mph /  16.1km/h 88% 0.00in /  0mm 0 W/m2
02:19 67.5 °F /  19.7 °C 63.8 °F /  17.7 °C 30.09in /  1018.8hPa South 1.4mph /  2.3km/h 10mph /  16.1km/h 88% 0.00in /  0mm 0 W/m2
02:24 67.4 °F /  19.7 °C 63.7 °F /  17.6 °C 30.08in /  1018.5hPa South 0.7mph /  1.1km/h 10mph /  16.1km/h 88% 0.00in /  0mm 0 W/m2
02:29 67.3 °F /  19.6 °C 63.7 °F /  17.6 °C 30.08in /  1018.5hPa South 1.5mph /  2.4km/h 10mph /  16.1km/h 88.3% 0.00in /  0mm 0 W/m2
02:34 67.3 °F /  19.6 °C 63.7 °F /  17.6 °C 30.08in /  1018.5hPa South 0.7mph /  1.1km/h 10mph /  16.1km/h 88.4% 0.00in /  0mm 0 W/m2
02:39 67.2 °F /  19.6 °C 63.8 °F /  17.7 °C 30.08in /  1018.5hPa South 0.8mph /  1.3km/h 5mph /  8km/h 89% 0.00in /  0mm 0 W/m2
02:44 67.2 °F /  19.6 °C 63.8 °F /  17.7 °C 30.08in /  1018.5hPa South 0.2mph /  0.3km/h 5mph /  8km/h 89% 0.00in /  0mm 0 W/m2
02:49 67.1 °F /  19.5 °C 63.8 °F /  17.7 °C 30.08in /  1018.5hPa South 1.5mph /  2.4km/h 9mph /  14.5km/h 89% 0.00in /  0mm 0 W/m2
02:54 67.1 °F /  19.5 °C 63.7 °F /  17.6 °C 30.08in /  1018.5hPa South 0.4mph /  0.6km/h 9mph /  14.5km/h 89% 0.00in /  0mm 0 W/m2
02:59 67 °F /  19.4 °C 63.7 °F /  17.6 °C 30.08in /  1018.5hPa South 0.3mph /  0.5km/h 9mph /  14.5km/h 89% 0.00in /  0mm 0 W/m2
03:04 67 °F /  19.4 °C 63.7 °F /  17.6 °C 30.08in /  1018.5hPa South 0.4mph /  0.6km/h 9mph /  14.5km/h 89% 0.00in /  0mm 0 W/m2
03:09 67 °F /  19.4 °C 63.7 °F /  17.6 °C 30.08in /  1018.5hPa South 0.6mph /  1km/h 5mph /  8km/h 89% 0.00in /  0mm 0 W/m2
03:14 66.9 °F /  19.4 °C 63.7 °F /  17.6 °C 30.08in /  1018.5hPa Calm   5mph /  8km/h 89.2% 0.00in /  0mm 0 W/m2
03:19 66.9 °F /  19.4 °C 63.9 °F /  17.7 °C 30.08in /  1018.5hPa South 0.1mph /  0.2km/h 5mph /  8km/h 90% 0.00in /  0mm 0 W/m2
03:24 66.9 °F /  19.4 °C 63.9 °F /  17.7 °C 30.08in /  1018.5hPa Calm   5mph /  8km/h 90% 0.00in /  0mm 0 W/m2
03:29 66.9 °F /  19.4 °C 63.9 °F /  17.7 °C 30.08in /  1018.5hPa Calm   5mph /  8km/h 90% 0.00in /  0mm 0 W/m2
03:34 66.9 °F /  19.4 °C 63.9 °F /  17.7 °C 30.08in /  1018.5hPa Calm   5mph /  8km/h 90% 0.00in /  0mm 0 W/m2
03:39 66.9 °F /  19.4 °C 63.9 °F /  17.7 °C 30.08in /  1018.5hPa South 0.2mph /  0.3km/h 4mph /  6.4km/h 90% 0.00in /  0mm 0 W/m2
03:44 66.9 °F /  19.4 °C 63.9 °F /  17.7 °C 30.08in /  1018.5hPa Calm   4mph /  6.4km/h 90% 0.00in /  0mm 0 W/m2
03:49 67 °F /  19.4 °C 64 °F /  17.8 °C 30.08in /  1018.5hPa South 0.3mph /  0.5km/h 4mph /  6.4km/h 90% 0.00in /  0mm 0 W/m2
03:54 67 °F /  19.4 °C 64 °F /  17.8 °C 30.08in /  1018.5hPa South 0.1mph /  0.2km/h 4mph /  6.4km/h 90% 0.00in /  0mm 0 W/m2
03:59 67 °F /  19.4 °C 64 °F /  17.8 °C 30.08in /  1018.5hPa South 1.6mph /  2.6km/h 4mph /  6.4km/h 90% 0.00in /  0mm 0 W/m2
04:04 67 °F /  19.4 °C 64 °F /  17.8 °C 30.08in /  1018.5hPa South 0.2mph /  0.3km/h 1mph /  1.6km/h 90% 0.00in /  0mm 0 W/m2
04:09 67 °F /  19.4 °C 64 °F /  17.8 °C 30.08in /  1018.5hPa South 0.6mph /  1km/h 5mph /  8km/h 90% 0.00in /  0mm 0 W/m2
04:14 67 °F /  19.4 °C 64 °F /  17.8 °C 30.07in /  1018.2hPa South 0.9mph /  1.4km/h 9mph /  14.5km/h 90% 0.00in /  0mm 0 W/m2
04:19 67 °F /  19.4 °C 64 °F /  17.8 °C 30.07in /  1018.2hPa South 0.2mph /  0.3km/h 9mph /  14.5km/h 90% 0.00in /  0mm 0 W/m2
04:24 67 °F /  19.4 °C 64 °F /  17.8 °C 30.07in /  1018.2hPa South 0.6mph /  1km/h 9mph /  14.5km/h 90% 0.00in /  0mm 0 W/m2
04:29 67 °F /  19.4 °C 64 °F /  17.8 °C 30.07in /  1018.2hPa South 0.4mph /  0.6km/h 9mph /  14.5km/h 90% 0.00in /  0mm 0 W/m2
04:34 66.9 °F /  19.4 °C 63.9 °F /  17.7 °C 30.07in /  1018.2hPa South 0.1mph /  0.2km/h 9mph /  14.5km/h 90% 0.00in /  0mm 0 W/m2
04:39 66.9 °F /  19.4 °C 63.9 °F /  17.7 °C 30.07in /  1018.2hPa South 0.1mph /  0.2km/h 3mph /  4.8km/h 90% 0.00in /  0mm 0 W/m2
04:44 66.8 °F /  19.3 °C 63.8 °F /  17.7 °C 30.07in /  1018.2hPa Calm   3mph /  4.8km/h 90% 0.00in /  0mm 0 W/m2
04:49 66.8 °F /  19.3 °C 63.8 °F /  17.7 °C 30.07in /  1018.2hPa South 0.1mph /  0.2km/h 3mph /  4.8km/h 90% 0.00in /  0mm 0 W/m2
04:54 66.8 °F /  19.3 °C 63.8 °F /  17.7 °C 30.07in /  1018.2hPa Calm   3mph /  4.8km/h 90% 0.00in /  0mm 0 W/m2
04:59 66.8 °F /  19.3 °C 63.8 °F /  17.7 °C 30.07in /  1018.2hPa South 0.3mph /  0.5km/h 3mph /  4.8km/h 90% 0.00in /  0mm 0 W/m2
05:04 66.8 °F /  19.3 °C 63.8 °F /  17.7 °C 30.07in /  1018.2hPa Calm   3mph /  4.8km/h 90% 0.00in /  0mm 0 W/m2
05:09 66.8 °F /  19.3 °C 63.8 °F /  17.7 °C 30.08in /  1018.5hPa Calm   1mph /  1.6km/h 90% 0.00in /  0mm 0 W/m2
05:14 66.8 °F /  19.3 °C 63.8 °F /  17.7 °C 30.08in /  1018.5hPa South 0.1mph /  0.2km/h 4mph /  6.4km/h 90% 0.00in /  0mm 0 W/m2
05:19 66.8 °F /  19.3 °C 63.8 °F /  17.7 °C 30.08in /  1018.5hPa South 0.1mph /  0.2km/h 4mph /  6.4km/h 90% 0.00in /  0mm 0 W/m2
05:24 66.8 °F /  19.3 °C 63.8 °F /  17.7 °C 30.08in /  1018.5hPa Calm   4mph /  6.4km/h 90% 0.00in /  0mm 0 W/m2
05:29 66.8 °F /  19.3 °C 63.8 °F /  17.7 °C 30.08in /  1018.5hPa Calm   4mph /  6.4km/h 90% 0.00in /  0mm 0 W/m2
05:34 66.8 °F /  19.3 °C 63.8 °F /  17.7 °C 30.08in /  1018.5hPa Calm   4mph /  6.4km/h 90% 0.00in /  0mm 0 W/m2
05:39 66.8 °F /  19.3 °C 63.8 °F /  17.7 °C 30.08in /  1018.5hPa Calm     90% 0.00in /  0mm 0 W/m2
05:44 66.8 °F /  19.3 °C 63.8 °F /  17.7 °C 30.08in /  1018.5hPa Calm     90% 0.00in /  0mm 0 W/m2
05:49 66.8 °F /  19.3 °C 63.8 °F /  17.7 °C 30.08in /  1018.5hPa Calm     90% 0.00in /  0mm 0 W/m2
05:54 66.7 °F /  19.3 °C 63.7 °F /  17.6 °C 30.08in /  1018.5hPa Calm     90% 0.00in /  0mm 0 W/m2
05:59 66.7 °F /  19.3 °C 63.7 °F /  17.6 °C 30.08in /  1018.5hPa Calm     90% 0.00in /  0mm 0 W/m2
06:04 66.7 °F /  19.3 °C 63.7 °F /  17.6 °C 30.08in /  1018.5hPa Calm   1mph /  1.6km/h 90% 0.00in /  0mm 0 W/m2
06:09 66.7 °F /  19.3 °C 63.7 °F /  17.6 °C 30.08in /  1018.5hPa Calm   1mph /  1.6km/h 90% 0.00in /  0mm 0 W/m2
06:14 66.6 °F /  19.2 °C 63.8 °F /  17.7 °C 30.07in /  1018.2hPa Calm   1mph /  1.6km/h 90.5% 0.00in /  0mm 0 W/m2
06:19 66.6 °F /  19.2 °C 63.9 °F /  17.7 °C 30.08in /  1018.5hPa Calm   1mph /  1.6km/h 91% 0.00in /  0mm 0 W/m2
06:24 66.6 °F /  19.2 °C 63.9 °F /  17.7 °C 30.08in /  1018.5hPa Calm   1mph /  1.6km/h 91% 0.00in /  0mm 0 W/m2
06:29 66.6 °F /  19.2 °C 63.9 °F /  17.7 °C 30.08in /  1018.5hPa Calm   1mph /  1.6km/h 91% 0.00in /  0mm 0 W/m2
06:34 66.6 °F /  19.2 °C 63.9 °F /  17.7 °C 30.08in /  1018.5hPa Calm   1mph /  1.6km/h 91% 0.00in /  0mm 0 W/m2
06:39 66.6 °F /  19.2 °C 63.9 °F /  17.7 °C 30.08in /  1018.5hPa Calm     91% 0.00in /  0mm 0 W/m2
06:44 66.5 °F /  19.2 °C 63.8 °F /  17.7 °C 30.08in /  1018.5hPa Calm     91% 0.00in /  0mm 5 W/m2
06:49 66.5 °F /  19.2 °C 63.8 °F /  17.7 °C 30.08in /  1018.5hPa Calm     91% 0.00in /  0mm 11 W/m2
06:54 66.5 °F /  19.2 °C 63.8 °F /  17.7 °C 30.08in /  1018.5hPa Calm     91% 0.00in /  0mm 11 W/m2
06:59 66.5 °F /  19.2 °C 63.8 °F /  17.7 °C 30.08in /  1018.5hPa Calm     91% 0.00in /  0mm 14 W/m2
07:04 66.6 °F /  19.2 °C 63.9 °F /  17.7 °C 30.08in /  1018.5hPa Calm     91% 0.00in /  0mm 23 W/m2
07:09 66.7 °F /  19.3 °C 64 °F /  17.8 °C 30.08in /  1018.5hPa South 0.1mph /  0.2km/h 3mph /  4.8km/h 91% 0.00in /  0mm 23 W/m2
07:14 66.8 °F /  19.3 °C 64 °F /  17.8 °C 30.08in /  1018.5hPa Calm   3mph /  4.8km/h 91% 0.00in /  0mm 39 W/m2
07:19 66.8 °F /  19.3 °C 64.1 °F /  17.8 °C 30.08in /  1018.5hPa Calm   3mph /  4.8km/h 91% 0.00in /  0mm 58 W/m2
07:24 66.9 °F /  19.4 °C 64.2 °F /  17.9 °C 30.08in /  1018.5hPa Calm   3mph /  4.8km/h 91% 0.00in /  0mm 104 W/m2
07:29 67.2 °F /  19.6 °C 64.4 °F /  18 °C 30.08in /  1018.5hPa Calm   3mph /  4.8km/h 91% 0.00in /  0mm 60 W/m2
07:34 67.3 °F /  19.6 °C 64.6 °F /  18.1 °C 30.09in /  1018.8hPa Calm   3mph /  4.8km/h 91% 0.00in /  0mm 44 W/m2
07:39 67.5 °F /  19.7 °C 64.4 °F /  18 °C 30.09in /  1018.8hPa Calm     90.1% 0.00in /  0mm 46 W/m2
07:44 67.6 °F /  19.8 °C 64.5 °F /  18.1 °C 30.09in /  1018.8hPa Calm     90% 0.00in /  0mm 47 W/m2
07:49 67.6 °F /  19.8 °C 64.6 °F /  18.1 °C 30.09in /  1018.8hPa Calm     90% 0.00in /  0mm 65 W/m2
07:54 67.7 °F /  19.8 °C 64.7 °F /  18.2 °C 30.09in /  1018.8hPa Calm     90% 0.00in /  0mm 95 W/m2
07:59 67.7 °F /  19.8 °C 64.7 °F /  18.2 °C 30.09in /  1018.8hPa Calm     90% 0.00in /  0mm 148 W/m2
08:00 67.8 °F /  19.9 °C 64.8 °F /  18.2 °C 30.09in /  1018.8hPa Calm     90% 0.00in /  0mm 54 W/m2
08:09 67.9 °F /  19.9 °C 64.6 °F /  18.1 °C 30.09in /  1018.8hPa Calm     89% 0.00in /  0mm 58 W/m2
08:14 68 °F /  20 °C 64.7 °F /  18.2 °C 30.09in /  1018.8hPa Calm     89% 0.00in /  0mm 97 W/m2
08:19 68.2 °F /  20.1 °C 64.8 °F /  18.2 °C 30.09in /  1018.8hPa Calm     89% 0.00in /  0mm 165 W/m2
08:24 68.4 °F /  20.2 °C 65.1 °F /  18.4 °C 30.09in /  1018.8hPa Calm     89% 0.00in /  0mm 142 W/m2
08:29 68.7 °F /  20.4 °C 65 °F /  18.3 °C 30.09in /  1018.8hPa Calm     88.1% 0.00in /  0mm 127 W/m2
08:34 68.9 °F /  20.5 °C 65.2 °F /  18.4 °C 30.09in /  1018.8hPa Calm     88% 0.00in /  0mm 111 W/m2
08:39 69.1 °F /  20.6 °C 65.4 °F /  18.6 °C 30.09in /  1018.8hPa Calm     88% 0.00in /  0mm 86 W/m2
08:44 69.2 °F /  20.7 °C 65.4 °F /  18.6 °C 30.09in /  1018.8hPa Calm     87.7% 0.00in /  0mm 111 W/m2
08:49 69.4 °F /  20.8 °C 65.3 °F /  18.5 °C 30.09in /  1018.8hPa Calm     87% 0.00in /  0mm 105 W/m2
08:54 69.4 °F /  20.8 °C 65.4 °F /  18.6 °C 30.09in /  1018.8hPa Calm     87% 0.00in /  0mm 104 W/m2
08:59 69.5 °F /  20.8 °C 65.5 °F /  18.6 °C 30.09in /  1018.8hPa Calm     87% 0.00in /  0mm 185 W/m2
09:04 69.8 °F /  21 °C 65.7 °F /  18.7 °C 30.08in /  1018.5hPa Calm     86.8% 0.00in /  0mm 290 W/m2
09:09 70.3 °F /  21.3 °C 66.1 °F /  18.9 °C 30.08in /  1018.5hPa Calm     86.7% 0.00in /  0mm 424 W/m2
09:14 70.8 °F /  21.6 °C 66.2 °F /  19 °C 30.08in /  1018.5hPa Calm     85.2% 0.00in /  0mm 424 W/m2
09:19 71.5 °F /  21.9 °C 66.5 °F /  19.2 °C 30.08in /  1018.5hPa Calm     84.4% 0.00in /  0mm 248 W/m2
09:24 72 °F /  22.2 °C 66.4 °F /  19.1 °C 30.08in /  1018.5hPa Calm     82.5% 0.00in /  0mm 248 W/m2
09:29 72.6 °F /  22.6 °C 66.6 °F /  19.2 °C 30.08in /  1018.5hPa WSW 2.1mph /  3.4km/h 10mph /  16.1km/h 81.3% 0.00in /  0mm 352 W/m2
09:34 73.2 °F /  22.9 °C 65.8 °F /  18.8 °C 30.08in /  1018.5hPa West 5.6mph /  9km/h 10mph /  16.1km/h 77.7% 0.00in /  0mm 339 W/m2
09:39 73.6 °F /  23.1 °C 65.4 °F /  18.6 °C 30.09in /  1018.8hPa West 3.9mph /  6.3km/h 17mph /  27.4km/h 75.4% 0.00in /  0mm 241 W/m2
09:44 73.8 °F /  23.2 °C 65.2 °F /  18.4 °C 30.09in /  1018.8hPa West 4.5mph /  7.2km/h 17mph /  27.4km/h 74.6% 0.00in /  0mm 123 W/m2
09:49 73.7 °F /  23.2 °C 64.9 °F /  18.3 °C 30.09in /  1018.8hPa West 3.2mph /  5.1km/h 17mph /  27.4km/h 74% 0.00in /  0mm 84 W/m2
09:54 73.4 °F /  23 °C 64.7 °F /  18.2 °C 30.09in /  1018.8hPa West 2.2mph /  3.5km/h 17mph /  27.4km/h 74.4% 0.00in /  0mm 432 W/m2
09:59 73.2 °F /  22.9 °C 64.8 °F /  18.2 °C 30.09in /  1018.8hPa West 3.4mph /  5.5km/h 17mph /  27.4km/h 74.8% 0.00in /  0mm 258 W/m2
10:04 73.2 °F /  22.9 °C 64.4 °F /  18 °C 30.09in /  1018.8hPa West 1.9mph /  3.1km/h 17mph /  27.4km/h 74% 0.00in /  0mm 46 W/m2
10:09 73.3 °F /  22.9 °C 64.7 °F /  18.2 °C 30.08in /  1018.5hPa WNW 0.3mph /  0.5km/h 10mph /  16.1km/h 74.4% 0.00in /  0mm 468 W/m2
10:14 73.8 °F /  23.2 °C 64.8 °F /  18.2 °C 30.08in /  1018.5hPa WSW 2mph /  3.2km/h 11mph /  17.7km/h 73.6% 0.00in /  0mm 515 W/m2
10:19 74.5 °F /  23.6 °C 64.9 °F /  18.3 °C 30.08in /  1018.5hPa West 1.6mph /  2.6km/h 11mph /  17.7km/h 71.9% 0.00in /  0mm 519 W/m2
10:24 75.5 °F /  24.2 °C 65.1 °F /  18.4 °C 30.08in /  1018.5hPa WSW 1.9mph /  3.1km/h 12mph /  19.3km/h 70.1% 0.00in /  0mm 526 W/m2
10:29 76.5 °F /  24.7 °C 64.3 °F /  17.9 °C 30.08in /  1018.5hPa West 2.8mph /  4.5km/h 12mph /  19.3km/h 66.1% 0.00in /  0mm 531 W/m2
10:34 77.2 °F /  25.1 °C 64.3 °F /  17.9 °C 30.08in /  1018.5hPa WSW 2.7mph /  4.3km/h 12mph /  19.3km/h 64.6% 0.00in /  0mm 536 W/m2
10:39 77.7 °F /  25.4 °C 64.7 °F /  18.2 °C 30.08in /  1018.5hPa West 0.4mph /  0.6km/h 11mph /  17.7km/h 64.2% 0.00in /  0mm 508 W/m2
10:44 78.2 °F /  25.7 °C 63.8 °F /  17.7 °C 30.08in /  1018.5hPa West 3.1mph /  5km/h 12mph /  19.3km/h 61.2% 0.00in /  0mm 432 W/m2
10:49 78.4 °F /  25.8 °C 63.4 °F /  17.4 °C 30.08in /  1018.5hPa WNW 2mph /  3.2km/h 12mph /  19.3km/h 60% 0.00in /  0mm 352 W/m2
10:54 78.6 °F /  25.9 °C 63.6 °F /  17.6 °C 30.08in /  1018.5hPa WSW 3.4mph /  5.5km/h 12mph /  19.3km/h 60.1% 0.00in /  0mm 292 W/m2
10:59 78.3 °F /  25.7 °C 62.9 °F /  17.2 °C 30.08in /  1018.5hPa West 4.4mph /  7.1km/h 12mph /  19.3km/h 59.1% 0.00in /  0mm 97 W/m2
11:04 77.6 °F /  25.3 °C 62.7 °F /  17.1 °C 30.08in /  1018.5hPa WNW 2.6mph /  4.2km/h 12mph /  19.3km/h 60.2% 0.00in /  0mm 163 W/m2
11:09 77 °F /  25 °C 62.5 °F /  16.9 °C 30.08in /  1018.5hPa NW 2.7mph /  4.3km/h 11mph /  17.7km/h 60.8% 0.00in /  0mm 169 W/m2
11:14 76.7 °F /  24.8 °C 62.1 °F /  16.7 °C 30.08in /  1018.5hPa WNW 5mph /  8km/h 14mph /  22.5km/h 60.7% 0.00in /  0mm 485 W/m2
11:19 76.5 °F /  24.7 °C 62 °F /  16.7 °C 30.08in /  1018.5hPa WNW 5.4mph /  8.7km/h 14mph /  22.5km/h 61% 0.00in /  0mm 132 W/m2
11:24 76.3 °F /  24.6 °C 62.1 °F /  16.7 °C 30.08in /  1018.5hPa NW 7mph /  11.3km/h 14mph /  22.5km/h 61.6% 0.00in /  0mm 121 W/m2
11:29 75.7 °F /  24.3 °C 61.9 °F /  16.6 °C 30.08in /  1018.5hPa NW 3.7mph /  6km/h 14mph /  22.5km/h 62.3% 0.00in /  0mm 60 W/m2
11:34 75 °F /  23.9 °C 61.5 °F /  16.4 °C 30.07in /  1018.2hPa NW 3.3mph /  5.3km/h 14mph /  22.5km/h 63% 0.00in /  0mm 79 W/m2
11:39 74.6 °F /  23.7 °C 61.7 °F /  16.5 °C 30.07in /  1018.2hPa WNW 1mph /  1.6km/h 11mph /  17.7km/h 64.2% 0.00in /  0mm 83 W/m2
11:44 74.5 °F /  23.6 °C 62.2 °F /  16.8 °C 30.07in /  1018.2hPa WNW 1.5mph /  2.4km/h 11mph /  17.7km/h 65.4% 0.00in /  0mm 83 W/m2
11:49 74.7 °F /  23.7 °C 61.9 °F /  16.6 °C 30.07in /  1018.2hPa WNW 1.3mph /  2.1km/h 11mph /  17.7km/h 64.5% 0.00in /  0mm 49 W/m2
11:54 74.7 °F /  23.7 °C 61.4 °F /  16.3 °C 30.07in /  1018.2hPa WNW 3.2mph /  5.1km/h 13mph /  20.9km/h 63.3% 0.00in /  0mm 113 W/m2
11:59 74.7 °F /  23.7 °C 61.3 °F /  16.3 °C 30.07in /  1018.2hPa West 2.4mph /  3.9km/h 13mph /  20.9km/h 63.2% 0.00in /  0mm 309 W/m2
12:00 74.7 °F /  23.7 °C 60.8 °F /  16 °C 30.07in /  1018.2hPa WNW 4mph /  6.4km/h 13mph /  20.9km/h 62% 0.00in /  0mm 309 W/m2
12:09 75.3 °F /  24.1 °C 60.4 °F /  15.8 °C 30.07in /  1018.2hPa West 4.1mph /  6.6km/h 12mph /  19.3km/h 59.8% 0.00in /  0mm 197 W/m2
12:14 75.9 °F /  24.4 °C 60.1 °F /  15.6 °C 30.07in /  1018.2hPa West 6.5mph /  10.5km/h 15mph /  24.1km/h 58% 0.00in /  0mm 531 W/m2
12:19 76.5 °F /  24.7 °C 59.2 °F /  15.1 °C 30.07in /  1018.2hPa WNW 6mph /  9.7km/h 17mph /  27.4km/h 55.2% 0.00in /  0mm 487 W/m2
12:24 76.8 °F /  24.9 °C 58.6 °F /  14.8 °C 30.07in /  1018.2hPa WNW 6.6mph /  10.6km/h 17mph /  27.4km/h 53.5% 0.00in /  0mm 601 W/m2
12:29 77.1 °F /  25.1 °C 59.2 °F /  15.1 °C 30.07in /  1018.2hPa WNW 6.7mph /  10.8km/h 19mph /  30.6km/h 54% 0.00in /  0mm 612 W/m2
12:34 77.3 °F /  25.2 °C 59.8 °F /  15.4 °C 30.07in /  1018.2hPa NW 6.9mph /  11.1km/h 19mph /  30.6km/h 54.8% 0.00in /  0mm 612 W/m2
12:39 77.1 °F /  25.1 °C 59.8 °F /  15.4 °C 30.07in /  1018.2hPa WNW 3.6mph /  5.8km/h 17mph /  27.4km/h 55.1% 0.00in /  0mm 276 W/m2
12:44 76.9 °F /  24.9 °C 59.7 °F /  15.4 °C 30.07in /  1018.2hPa WNW 4.2mph /  6.8km/h 17mph /  27.4km/h 55.4% 0.00in /  0mm 276 W/m2
12:49 76.7 °F /  24.8 °C 59.1 °F /  15.1 °C 30.07in /  1018.2hPa West 3.3mph /  5.3km/h 17mph /  27.4km/h 54.5% 0.00in /  0mm 163 W/m2
12:54 76.5 °F /  24.7 °C 58.8 °F /  14.9 °C 30.07in /  1018.2hPa WNW 5.9mph /  9.5km/h 17mph /  27.4km/h 54.4% 0.00in /  0mm 448 W/m2
12:59 76.2 °F /  24.6 °C 58.9 °F /  14.9 °C 30.07in /  1018.2hPa West 3.3mph /  5.3km/h 17mph /  27.4km/h 55% 0.00in /  0mm 401 W/m2
13:04 76.3 °F /  24.6 °C 58.9 °F /  14.9 °C 30.07in /  1018.2hPa NW 3.1mph /  5km/h 17mph /  27.4km/h 54.9% 0.00in /  0mm 264 W/m2
13:09 76.3 °F /  24.6 °C 58.3 °F /  14.6 °C 30.07in /  1018.2hPa NW 5.1mph /  8.2km/h 15mph /  24.1km/h 53.6% 0.00in /  0mm 390 W/m2
13:14 76.2 °F /  24.6 °C 57.8 °F /  14.3 °C 30.07in /  1018.2hPa WNW 4.9mph /  7.9km/h 15mph /  24.1km/h 53% 0.00in /  0mm 104 W/m2
13:19 76.1 °F /  24.5 °C 57.7 °F /  14.3 °C 30.06in /  1017.8hPa NW 3.7mph /  6km/h 15mph /  24.1km/h 53% 0.00in /  0mm 121 W/m2
13:24 76 °F /  24.4 °C 57.6 °F /  14.2 °C 30.06in /  1017.8hPa NW 2.6mph /  4.2km/h 15mph /  24.1km/h 52.8% 0.00in /  0mm 135 W/m2
13:29 76.1 °F /  24.5 °C 57.7 °F /  14.3 °C 30.06in /  1017.8hPa WNW 4.5mph /  7.2km/h 15mph /  24.1km/h 52.8% 0.00in /  0mm 431 W/m2
13:34 76.2 °F /  24.6 °C 57.6 °F /  14.2 °C 30.06in /  1017.8hPa WNW 2mph /  3.2km/h 15mph /  24.1km/h 52.6% 0.00in /  0mm 325 W/m2
13:39 76.1 °F /  24.5 °C 57.3 °F /  14.1 °C 30.06in /  1017.8hPa NW 3.5mph /  5.6km/h 10mph /  16.1km/h 52.1% 0.00in /  0mm 207 W/m2
13:44 76 °F /  24.4 °C 57.1 °F /  13.9 °C 30.06in /  1017.8hPa WNW 4.3mph /  6.9km/h 12mph /  19.3km/h 52% 0.00in /  0mm 192 W/m2
13:49 76 °F /  24.4 °C 57.1 °F /  13.9 °C 30.06in /  1017.8hPa WNW 1.9mph /  3.1km/h 12mph /  19.3km/h 52% 0.00in /  0mm 367 W/m2
13:54 76.2 °F /  24.6 °C 56.8 °F /  13.8 °C 30.06in /  1017.8hPa West 2.7mph /  4.3km/h 12mph /  19.3km/h 51% 0.00in /  0mm 258 W/m2
13:59 76.3 °F /  24.6 °C 56.1 °F /  13.4 °C 30.06in /  1017.8hPa NW 4.2mph /  6.8km/h 12mph /  19.3km/h 49.8% 0.00in /  0mm 179 W/m2
14:04 76.1 °F /  24.5 °C 55.7 °F /  13.2 °C 30.06in /  1017.8hPa WNW 3.1mph /  5km/h 12mph /  19.3km/h 49.2% 0.00in /  0mm 163 W/m2
14:09 75.9 °F /  24.4 °C 55.1 °F /  12.8 °C 30.06in /  1017.8hPa WNW 6.3mph /  10.1km/h 14mph /  22.5km/h 48.5% 0.00in /  0mm 162 W/m2
14:14 75.7 °F /  24.3 °C 54.2 °F /  12.3 °C 30.06in /  1017.8hPa WNW 4.2mph /  6.8km/h 14mph /  22.5km/h 47.3% 0.00in /  0mm 134 W/m2
14:19 75.5 °F /  24.2 °C 53.9 °F /  12.2 °C 30.06in /  1017.8hPa WNW 4mph /  6.4km/h 14mph /  22.5km/h 47% 0.00in /  0mm 364 W/m2
14:24 75.3 °F /  24.1 °C 53.7 °F /  12.1 °C 30.06in /  1017.8hPa WNW 5.2mph /  8.4km/h 17mph /  27.4km/h 46.9% 0.00in /  0mm 323 W/m2
14:29 75.1 °F /  23.9 °C 52.5 °F /  11.4 °C 30.06in /  1017.8hPa WNW 6.1mph /  9.8km/h 17mph /  27.4km/h 45.2% 0.00in /  0mm 353 W/m2
14:34 74.9 °F /  23.8 °C 52 °F /  11.1 °C 30.06in /  1017.8hPa WNW 6.4mph /  10.3km/h 17mph /  27.4km/h 44.8% 0.00in /  0mm 30 W/m2
14:39 74.7 °F /  23.7 °C 51.4 °F /  10.8 °C 30.06in /  1017.8hPa WNW 6.6mph /  10.6km/h 17mph /  27.4km/h 44% 0.00in /  0mm 28 W/m2
14:44 74.6 °F /  23.7 °C 51.3 °F /  10.7 °C 30.06in /  1017.8hPa WNW 3mph /  4.8km/h 17mph /  27.4km/h 44.2% 0.00in /  0mm 26 W/m2
14:49 74.5 °F /  23.6 °C 52 °F /  11.1 °C 30.07in /  1018.2hPa WNW 1.2mph /  1.9km/h 17mph /  27.4km/h 45.5% 0.00in /  0mm 26 W/m2
14:54 74.4 °F /  23.6 °C 51.8 °F /  11 °C 30.07in /  1018.2hPa WNW 5.8mph /  9.3km/h 19mph /  30.6km/h 45.3% 0.00in /  0mm 26 W/m2
14:59 74.3 °F /  23.5 °C 51.3 °F /  10.7 °C 30.07in /  1018.2hPa West 3.3mph /  5.3km/h 19mph /  30.6km/h 44.4% 0.00in /  0mm 25 W/m2
15:04 74.2 °F /  23.4 °C 51.2 °F /  10.7 °C 30.07in /  1018.2hPa WNW 5.1mph /  8.2km/h 19mph /  30.6km/h 44.5% 0.00in /  0mm 25 W/m2
15:09 74.1 °F /  23.4 °C 51.4 °F /  10.8 °C 30.07in /  1018.2hPa WNW 2.6mph /  4.2km/h 13mph /  20.9km/h 45% 0.00in /  0mm 23 W/m2
15:14 74 °F /  23.3 °C 51.2 °F /  10.7 °C 30.07in /  1018.2hPa WNW 4.4mph /  7.1km/h 13mph /  20.9km/h 44.9% 0.00in /  0mm 23 W/m2
15:19 73.9 °F /  23.3 °C 51.2 °F /  10.7 °C 30.07in /  1018.2hPa WNW 2.4mph /  3.9km/h 13mph /  20.9km/h 45% 0.00in /  0mm 21 W/m2
15:24 73.7 °F /  23.2 °C 51.1 °F /  10.6 °C 30.07in /  1018.2hPa WNW 4.2mph /  6.8km/h 13mph /  20.9km/h 45% 0.00in /  0mm 21 W/m2
15:29 73.6 °F /  23.1 °C 51.2 °F /  10.7 °C 30.07in /  1018.2hPa WNW 3.1mph /  5km/h 13mph /  20.9km/h 45.3% 0.00in /  0mm 19 W/m2
15:34 73.5 °F /  23.1 °C 50.3 °F /  10.2 °C 30.07in /  1018.2hPa West 4.1mph /  6.6km/h 13mph /  20.9km/h 44.1% 0.00in /  0mm 19 W/m2
15:39 73.5 °F /  23.1 °C 50.4 °F /  10.2 °C 30.06in /  1017.8hPa West 1.4mph /  2.3km/h 12mph /  19.3km/h 44.2% 0.00in /  0mm 19 W/m2
15:44 73.4 °F /  23 °C 50.8 °F /  10.4 °C 30.06in /  1017.8hPa West 0.4mph /  0.6km/h 12mph /  19.3km/h 45% 0.00in /  0mm 18 W/m2
15:49 73.3 °F /  22.9 °C 50.7 °F /  10.4 °C 30.06in /  1017.8hPa West 1.3mph /  2.1km/h 12mph /  19.3km/h 45% 0.00in /  0mm 18 W/m2
15:54 73.1 °F /  22.8 °C 50.4 °F /  10.2 °C 30.06in /  1017.8hPa West 0.8mph /  1.3km/h 12mph /  19.3km/h 44.9% 0.00in /  0mm 16 W/m2
15:59 72.9 °F /  22.7 °C 50 °F /  10 °C 30.06in /  1017.8hPa WNW 1.3mph /  2.1km/h 12mph /  19.3km/h 44.5% 0.00in /  0mm 14 W/m2
16:00 72.8 °F /  22.7 °C 49.6 °F /  9.8 °C 30.06in /  1017.8hPa WNW 2mph /  3.2km/h 12mph /  19.3km/h 44% 0.00in /  0mm 14 W/m2
16:09 72.6 °F /  22.6 °C 48.2 °F /  9 °C 30.06in /  1017.8hPa WNW 0.2mph /  0.3km/h 2mph /  3.2km/h 41.9% 0.00in /  0mm 12 W/m2
16:14 72.3 °F /  22.4 °C 45 °F /  7.2 °C 30.06in /  1017.8hPa WSW 1.4mph /  2.3km/h 7mph /  11.3km/h 37.6% 0.00in /  0mm 11 W/m2
16:19 71.9 °F /  22.2 °C 42.1 °F /  5.6 °C 30.06in /  1017.8hPa West 3.1mph /  5km/h 11mph /  17.7km/h 34.1% 0.00in /  0mm 11 W/m2
16:24 71.5 °F /  21.9 °C 40.3 °F /  4.6 °C 30.07in /  1018.2hPa West 4.1mph /  6.6km/h 11mph /  17.7km/h 32.3% 0.00in /  0mm 9 W/m2
16:29 71.3 °F /  21.8 °C 38.4 °F /  3.6 °C 30.06in /  1017.8hPa West 4.3mph /  6.9km/h 12mph /  19.3km/h 30.1% 0.00in /  0mm 7 W/m2
16:34 71.1 °F /  21.7 °C 37.1 °F /  2.8 °C 30.07in /  1018.2hPa West 3.7mph /  6km/h 12mph /  19.3km/h 28.9% 0.00in /  0mm 5 W/m2
16:39 70.9 °F /  21.6 °C 35.6 °F /  2 °C 30.07in /  1018.2hPa West 5mph /  8km/h 11mph /  17.7km/h 27.4% 0.00in /  0mm 0 W/m2
16:44 70.8 °F /  21.6 °C 35.2 °F /  1.8 °C 30.07in /  1018.2hPa WNW 3.1mph /  5km/h 11mph /  17.7km/h 27% 0.00in /  0mm 0 W/m2
16:49 70.5 °F /  21.4 °C 34.3 °F /  1.3 °C 30.07in /  1018.2hPa WNW 3.6mph /  5.8km/h 14mph /  22.5km/h 26.3% 0.00in /  0mm 0 W/m2
16:54 70.3 °F /  21.3 °C 33.8 °F /  1 °C 30.08in /  1018.5hPa WNW 3.8mph /  6.1km/h 14mph /  22.5km/h 26% 0.00in /  0mm 0 W/m2
16:59 70.1 °F /  21.2 °C 33.8 °F /  1 °C 30.08in /  1018.5hPa West 2.7mph /  4.3km/h 14mph /  22.5km/h 26.2% 0.00in /  0mm 0 W/m2
17:04 69.8 °F /  21 °C 32.9 °F /  0.5 °C 30.08in /  1018.5hPa West 4.4mph /  7.1km/h 15mph /  24.1km/h 25.5% 0.00in /  0mm 0 W/m2
17:09 69.7 °F /  20.9 °C 32.1 °F /  0.1 °C 30.08in /  1018.5hPa WNW 4.7mph /  7.6km/h 15mph /  24.1km/h 24.8% 0.00in /  0mm 0 W/m2
17:14 69.6 °F /  20.9 °C 31.7 °F /  -0.2 °C 30.09in /  1018.8hPa WNW 4.3mph /  6.9km/h 15mph /  24.1km/h 24.4% 0.00in /  0mm 0 W/m2
17:19 69.6 °F /  20.9 °C 31.4 °F /  -0.3 °C 30.09in /  1018.8hPa WNW 2.7mph /  4.3km/h 15mph /  24.1km/h 24.2% 0.00in /  0mm 0 W/m2
17:24 69.5 °F /  20.8 °C 31.1 °F /  -0.5 °C 30.10in /  1019.2hPa WNW 4.4mph /  7.1km/h 15mph /  24.1km/h 24% 0.00in /  0mm 0 W/m2
17:29 69.4 °F /  20.8 °C 31.4 °F /  -0.3 °C 30.10in /  1019.2hPa WNW 1.8mph /  2.9km/h 15mph /  24.1km/h 24.4% 0.00in /  0mm 0 W/m2
17:34 69.1 °F /  20.6 °C 31.5 °F /  -0.3 °C 30.11in /  1019.5hPa NW 6.8mph /  10.9km/h 17mph /  27.4km/h 24.7% 0.00in /  0mm 0 W/m2
17:39 69 °F /  20.6 °C 32.4 °F /  0.2 °C 30.11in /  1019.5hPa NW 5.9mph /  9.5km/h 17mph /  27.4km/h 25.7% 0.00in /  0mm 0 W/m2
17:44 68.9 °F /  20.5 °C 33.2 °F /  0.7 °C 30.12in /  1019.9hPa NW 4.7mph /  7.6km/h 17mph /  27.4km/h 26.7% 0.00in /  0mm 0 W/m2
17:49 68.6 °F /  20.3 °C 33.5 °F /  0.8 °C 30.13in /  1020.2hPa NW 6.7mph /  10.8km/h 17mph /  27.4km/h 27.3% 0.00in /  0mm 0 W/m2
17:54 68.2 °F /  20.1 °C 33.3 °F /  0.7 °C 30.14in /  1020.5hPa NW 5.7mph /  9.2km/h 17mph /  27.4km/h 27.4% 0.00in /  0mm 0 W/m2
17:59 67.8 °F /  19.9 °C 33.5 °F /  0.8 °C 30.14in /  1020.5hPa NW 4.5mph /  7.2km/h 17mph /  27.4km/h 28% 0.00in /  0mm 0 W/m2
18:04 67.3 °F /  19.6 °C 33.1 °F /  0.6 °C 30.15in /  1020.9hPa NW 7.9mph /  12.7km/h 17mph /  27.4km/h 28% 0.00in /  0mm 0 W/m2
18:09 66.8 °F /  19.3 °C 33 °F /  0.6 °C 30.15in /  1020.9hPa NW 5.9mph /  9.5km/h 16mph /  25.7km/h 28.4% 0.00in /  0mm 0 W/m2
18:14 66.3 °F /  19.1 °C 33.1 °F /  0.6 °C 30.16in /  1021.2hPa WNW 6.5mph /  10.5km/h 16mph /  25.7km/h 29% 0.00in /  0mm 0 W/m2
18:19 65.9 °F /  18.8 °C 32.8 °F /  0.4 °C 30.16in /  1021.2hPa NW 3.4mph /  5.5km/h 16mph /  25.7km/h 29% 0.00in /  0mm 0 W/m2
18:24 65.5 °F /  18.6 °C 33.3 °F /  0.7 °C 30.16in /  1021.2hPa NW 3mph /  4.8km/h 16mph /  25.7km/h 30% 0.00in /  0mm 0 W/m2
18:29 65.2 °F /  18.4 °C 33.2 °F /  0.7 °C 30.17in /  1021.6hPa NW 4.8mph /  7.7km/h 16mph /  25.7km/h 30.3% 0.00in /  0mm 0 W/m2
18:34 64.7 °F /  18.2 °C 33.4 °F /  0.8 °C 30.17in /  1021.6hPa NW 5.1mph /  8.2km/h 16mph /  25.7km/h 31% 0.00in /  0mm 0 W/m2
18:39 64.3 °F /  17.9 °C 32.7 °F /  0.4 °C 30.17in /  1021.6hPa NW 7.6mph /  12.2km/h 15mph /  24.1km/h 30.6% 0.00in /  0mm 0 W/m2
18:44 64 °F /  17.8 °C 32.3 °F /  0.2 °C 30.17in /  1021.6hPa NW 5.4mph /  8.7km/h 15mph /  24.1km/h 30.5% 0.00in /  0mm 0 W/m2
18:49 63.7 °F /  17.6 °C 32.5 °F /  0.3 °C 30.17in /  1021.6hPa NW 4.7mph /  7.6km/h 15mph /  24.1km/h 31% 0.00in /  0mm 0 W/m2
18:54 63.4 °F /  17.4 °C 32 °F /  0 °C 30.18in /  1021.9hPa NW 7mph /  11.3km/h 16mph /  25.7km/h 30.7% 0.00in /  0mm 0 W/m2
18:59 63.2 °F /  17.3 °C 31.3 °F /  -0.4 °C 30.18in /  1021.9hPa NW 4.7mph /  7.6km/h 16mph /  25.7km/h 30% 0.00in /  0mm 0 W/m2
19:04 63 °F /  17.2 °C 31.5 °F /  -0.3 °C 30.18in /  1021.9hPa NW 2mph /  3.2km/h 16mph /  25.7km/h 30.4% 0.00in /  0mm 0 W/m2
19:09 62.8 °F /  17.1 °C 31.7 °F /  -0.2 °C 30.19in /  1022.2hPa NNW 2.8mph /  4.5km/h 10mph /  16.1km/h 31% 0.00in /  0mm 0 W/m2
19:14 62.4 °F /  16.9 °C 31.5 °F /  -0.3 °C 30.19in /  1022.2hPa NW 3.5mph /  5.6km/h 11mph /  17.7km/h 31.2% 0.00in /  0mm 0 W/m2
19:19 62 °F /  16.7 °C 31.3 °F /  -0.4 °C 30.20in /  1022.6hPa NW 4.5mph /  7.2km/h 13mph /  20.9km/h 31.4% 0.00in /  0mm 0 W/m2
19:24 61.6 °F /  16.4 °C 31.5 °F /  -0.3 °C 30.20in /  1022.6hPa NNW 3.5mph /  5.6km/h 13mph /  20.9km/h 32% 0.00in /  0mm 0 W/m2
19:29 61.2 °F /  16.2 °C 31.2 °F /  -0.4 °C 30.20in /  1022.6hPa NW 1.2mph /  1.9km/h 13mph /  20.9km/h 32% 0.00in /  0mm 0 W/m2
19:34 60.9 °F /  16.1 °C 31 °F /  -0.6 °C 30.21in /  1022.9hPa NW 4.3mph /  6.9km/h 13mph /  20.9km/h 32.2% 0.00in /  0mm 0 W/m2
19:39 60.7 °F /  15.9 °C 31 °F /  -0.6 °C 30.21in /  1022.9hPa NNW 1.9mph /  3.1km/h 13mph /  20.9km/h 32.4% 0.00in /  0mm 0 W/m2
19:44 60.4 °F /  15.8 °C 31.2 °F /  -0.4 °C 30.22in /  1023.2hPa NW 3.6mph /  5.8km/h 13mph /  20.9km/h 33.1% 0.00in /  0mm 0 W/m2
19:49 60.1 °F /  15.6 °C 31.7 °F /  -0.2 °C 30.22in /  1023.2hPa NW 2.2mph /  3.5km/h 13mph /  20.9km/h 34% 0.00in /  0mm 0 W/m2
19:54 59.8 °F /  15.4 °C 32 °F /  0 °C 30.23in /  1023.6hPa NW 6mph /  9.7km/h 19mph /  30.6km/h 34.9% 0.00in /  0mm 0 W/m2
19:59 59.5 °F /  15.3 °C 32.5 °F /  0.3 °C 30.23in /  1023.6hPa NW 2.8mph /  4.5km/h 19mph /  30.6km/h 35.9% 0.00in /  0mm 0 W/m2
20:00 59.4 °F /  15.2 °C 32.5 °F /  0.3 °C 30.23in /  1023.6hPa Calm   19mph /  30.6km/h 36% 0.00in /  0mm 0 W/m2
20:09 59.1 °F /  15.1 °C 33 °F /  0.6 °C 30.24in /  1023.9hPa NNW 7.9mph /  12.7km/h 17mph /  27.4km/h 37.3% 0.00in /  0mm 0 W/m2
20:14 58.8 °F /  14.9 °C 33.3 °F /  0.7 °C 30.24in /  1023.9hPa NW 8.1mph /  13km/h 19mph /  30.6km/h 38% 0.00in /  0mm 0 W/m2
20:19 58.6 °F /  14.8 °C 33.2 °F /  0.7 °C 30.24in /  1023.9hPa NW 6.2mph /  10km/h 19mph /  30.6km/h 38.1% 0.00in /  0mm 0 W/m2
20:24 58.4 °F /  14.7 °C 33.6 °F /  0.9 °C 30.25in /  1024.3hPa NW 9.8mph /  15.8km/h 22mph /  35.4km/h 39% 0.00in /  0mm 0 W/m2
20:29 58 °F /  14.4 °C 32.6 °F /  0.3 °C 30.25in /  1024.3hPa WNW 12mph /  19.3km/h 30mph /  48.3km/h 38% 0.00in /  0mm 0 W/m2
20:34 57.7 °F /  14.3 °C 32.3 °F /  0.2 °C 30.26in /  1024.6hPa NW 8.6mph /  13.8km/h 30mph /  48.3km/h 38% 0.00in /  0mm 0 W/m2
20:39 57.4 °F /  14.1 °C 32.1 °F /  0.1 °C 30.26in /  1024.6hPa WNW 7.4mph /  11.9km/h 21mph /  33.8km/h 38.1% 0.00in /  0mm 0 W/m2
20:44 57 °F /  13.9 °C 32.1 °F /  0.1 °C 30.26in /  1024.6hPa NW 7mph /  11.3km/h 21mph /  33.8km/h 38.6% 0.00in /  0mm 0 W/m2
20:49 56.7 °F /  13.7 °C 32.1 °F /  0.1 °C 30.26in /  1024.6hPa NW 9.5mph /  15.3km/h 26mph /  41.8km/h 39% 0.00in /  0mm 0 W/m2
20:54 56.5 °F /  13.6 °C 31.9 °F /  -0.1 °C 30.26in /  1024.6hPa NW 5.9mph /  9.5km/h 26mph /  41.8km/h 39% 0.00in /  0mm 0 W/m2
20:59 56.3 °F /  13.5 °C 31.7 °F /  -0.2 °C 30.27in /  1024.9hPa NW 7.4mph /  11.9km/h 26mph /  41.8km/h 39% 0.00in /  0mm 0 W/m2
21:04 56.1 °F /  13.4 °C 32.1 °F /  0.1 °C 30.27in /  1024.9hPa NW 3mph /  4.8km/h 26mph /  41.8km/h 40% 0.00in /  0mm 0 W/m2
21:09 55.8 °F /  13.2 °C 32.2 °F /  0.1 °C 30.27in /  1024.9hPa NW 5.3mph /  8.5km/h 16mph /  25.7km/h 40.5% 0.00in /  0mm 0 W/m2
21:14 55.6 °F /  13.1 °C 32.3 °F /  0.2 °C 30.27in /  1024.9hPa WNW 4.8mph /  7.7km/h 16mph /  25.7km/h 41% 0.00in /  0mm 0 W/m2
21:19 55.4 °F /  13 °C 32.4 °F /  0.2 °C 30.28in /  1025.3hPa NW 2.1mph /  3.4km/h 16mph /  25.7km/h 41.4% 0.00in /  0mm 0 W/m2
21:24 55.2 °F /  12.9 °C 32.9 °F /  0.5 °C 30.28in /  1025.3hPa NW 5.5mph /  8.9km/h 16mph /  25.7km/h 42.6% 0.00in /  0mm 0 W/m2
21:29 55 °F /  12.8 °C 32.9 °F /  0.5 °C 30.28in /  1025.3hPa NW 6mph /  9.7km/h 16mph /  25.7km/h 43% 0.00in /  0mm 0 W/m2
21:34 54.8 °F /  12.7 °C 33.6 °F /  0.9 °C 30.28in /  1025.3hPa NW 6.4mph /  10.3km/h 16mph /  25.7km/h 44.4% 0.00in /  0mm 0 W/m2
21:39 54.7 °F /  12.6 °C 33.8 °F /  1 °C 30.28in /  1025.3hPa NW 6.1mph /  9.8km/h 17mph /  27.4km/h 45% 0.00in /  0mm 0 W/m2
21:44 54.6 °F /  12.6 °C 33.9 °F /  1.1 °C 30.28in /  1025.3hPa NW 4.1mph /  6.6km/h 17mph /  27.4km/h 45.3% 0.00in /  0mm 0 W/m2
21:49 54.4 °F /  12.4 °C 34.3 °F /  1.3 °C 30.28in /  1025.3hPa NW 3.6mph /  5.8km/h 17mph /  27.4km/h 46.4% 0.00in /  0mm 0 W/m2
21:54 54.2 °F /  12.3 °C 34.4 °F /  1.3 °C 30.28in /  1025.3hPa NW 7.3mph /  11.7km/h 17mph /  27.4km/h 47% 0.00in /  0mm 0 W/m2
21:59 54.1 °F /  12.3 °C 34.3 °F /  1.3 °C 30.28in /  1025.3hPa NW 6mph /  9.7km/h 17mph /  27.4km/h 47% 0.00in /  0mm 0 W/m2
22:04 54 °F /  12.2 °C 34.5 °F /  1.4 °C 30.29in /  1025.6hPa NW 5.3mph /  8.5km/h 16mph /  25.7km/h 47.5% 0.00in /  0mm 0 W/m2
22:09 53.9 °F /  12.2 °C 34.8 °F /  1.6 °C 30.29in /  1025.6hPa NW 4.5mph /  7.2km/h 16mph /  25.7km/h 48.2% 0.00in /  0mm 0 W/m2
22:14 53.8 °F /  12.1 °C 34.9 °F /  1.6 °C 30.29in /  1025.6hPa NW 4.8mph /  7.7km/h 16mph /  25.7km/h 48.7% 0.00in /  0mm 0 W/m2
22:19 53.6 °F /  12 °C 35 °F /  1.7 °C 30.29in /  1025.6hPa WNW 3.1mph /  5km/h 16mph /  25.7km/h 49% 0.00in /  0mm 0 W/m2
22:24 53.5 °F /  11.9 °C 34.8 °F /  1.6 °C 30.29in /  1025.6hPa NW 1.8mph /  2.9km/h 16mph /  25.7km/h 49% 0.00in /  0mm 0 W/m2
22:29 53.3 °F /  11.8 °C 35.1 °F /  1.7 °C 30.29in /  1025.6hPa WNW 4.2mph /  6.8km/h 16mph /  25.7km/h 49.8% 0.00in /  0mm 0 W/m2
22:34 53.2 °F /  11.8 °C 35.3 °F /  1.8 °C 30.29in /  1025.6hPa NW 4.2mph /  6.8km/h 16mph /  25.7km/h 50.5% 0.00in /  0mm 0 W/m2
22:39 53 °F /  11.7 °C 35.4 °F /  1.9 °C 30.30in /  1026hPa NW 2.7mph /  4.3km/h 13mph /  20.9km/h 51% 0.00in /  0mm 0 W/m2
22:44 52.8 °F /  11.6 °C 35.2 °F /  1.8 °C 30.29in /  1025.6hPa NW 3.3mph /  5.3km/h 13mph /  20.9km/h 51% 0.00in /  0mm 0 W/m2
22:49 52.7 °F /  11.5 °C 35.4 °F /  1.9 °C 30.29in /  1025.6hPa NW 3.1mph /  5km/h 14mph /  22.5km/h 51.7% 0.00in /  0mm 0 W/m2
22:54 52.6 °F /  11.4 °C 35.5 °F /  1.9 °C 30.29in /  1025.6hPa NW 4.4mph /  7.1km/h 18mph /  29km/h 52% 0.00in /  0mm 0 W/m2
22:59 52.5 °F /  11.4 °C 35.4 °F /  1.9 °C 30.30in /  1026hPa NW 5.5mph /  8.9km/h 18mph /  29km/h 52% 0.00in /  0mm 0 W/m2
23:09 52.4 °F /  11.3 °C 35.3 °F /  1.8 °C 30.30in /  1026hPa NW 4.8mph /  7.7km/h 18mph /  29km/h 52% 0.00in /  0mm 0 W/m2
23:14 52.4 °F /  11.3 °C 35.3 °F /  1.8 °C 30.30in /  1026hPa NW 4.8mph /  7.7km/h 18mph /  29km/h 52% 0.00in /  0mm 0 W/m2
23:19 52.4 °F /  11.3 °C 35.3 °F /  1.8 °C 30.30in /  1026hPa NW 5.3mph /  8.5km/h 18mph /  29km/h 52% 0.00in /  0mm 0 W/m2
23:24 52.3 °F /  11.3 °C 35.2 °F /  1.8 °C 30.30in /  1026hPa NW 7.1mph /  11.4km/h 18mph /  29km/h 52% 0.00in /  0mm 0 W/m2
23:29 52.3 °F /  11.3 °C 35.2 °F /  1.8 °C 30.31in /  1026.3hPa NW 5.8mph /  9.3km/h 18mph /  29km/h 51.9% 0.00in /  0mm 0 W/m2
23:34 52.3 °F /  11.3 °C 35 °F /  1.7 °C 30.30in /  1026hPa NW 5.8mph /  9.3km/h 18mph /  29km/h 51.7% 0.00in /  0mm 0 W/m2
23:39 52.2 °F /  11.2 °C 34.9 °F /  1.6 °C 30.30in /  1026hPa NW 5.1mph /  8.2km/h 15mph /  24.1km/h 51.5% 0.00in /  0mm 0 W/m2
23:44 52.2 °F /  11.2 °C 34.6 °F /  1.4 °C 30.30in /  1026hPa NW 6.7mph /  10.8km/h 16mph /  25.7km/h 51% 0.00in /  0mm 0 W/m2
23:49 52.1 °F /  11.2 °C 34.5 °F /  1.4 °C 30.31in /  1026.3hPa NW 3.7mph /  6km/h 16mph /  25.7km/h 51% 0.00in /  0mm 0 W/m2
23:54 52 °F /  11.1 °C 34.5 °F /  1.4 °C 30.31in /  1026.3hPa NW 4.8mph /  7.7km/h 16mph /  25.7km/h 51% 0.00in /  0mm 0 W/m2
23:59 52 °F /  11.1 °C 34.4 °F /  1.3 °C 30.31in /  1026.3hPa NW 2.1mph /  3.4km/h 16mph /  25.7km/h 51% 0.00in /  0mm 0 W/m2
Hartford County Weather
Compliments of Weather Underground - 2 mb